Time;durP1;ratioP1;P1;durP2;ratioP2;P2;SDS_P1;SDS_P2;PMS_P1;PMS_P2;Temp;Humidity;BMP_temperature;BMP_pressure;BME280_temperature;BME280_humidity;BME280_pressure;Samples;Min_cycle;Max_cycle;Signal;HPM_P1;HPM_P2
2023/01/02 00:01:29;;;;;;;30.73;18.97;;;;;;;8.74;70.51;95995.06;5131172;28;20237;-46
2023/01/02 00:03:57;;;;;;;30.63;20.67;;;;;;;8.74;70.25;95997.59;5131624;28;20260;-49
2023/01/02 00:06:24;;;;;;;33.50;19.53;;;;;;;8.71;70.32;95988.41;5131547;28;20201;-48
2023/01/02 00:08:51;;;;;;;30.50;19.43;;;;;;;8.72;70.35;95989.22;5131135;28;20930;-48
2023/01/02 00:11:18;;;;;;;31.53;19.63;;;;;;;8.70;70.34;95981.69;5130465;28;20197;-46
2023/01/02 00:13:46;;;;;;;33.33;20.03;;;;;;;8.69;70.23;95984.34;5129313;28;20245;-47
2023/01/02 00:16:12;;;;;;;30.13;20.03;;;;;;;8.67;70.16;95984.41;5129808;28;20261;-46
2023/01/02 00:18:39;;;;;;;27.03;18.23;;;;;;;8.67;70.31;95978.50;5129735;28;20197;-47
2023/01/02 00:21:06;;;;;;;31.87;20.43;;;;;;;8.66;70.35;95981.97;5131891;27;20265;-47
2023/01/02 00:23:33;;;;;;;33.13;19.93;;;;;;;8.46;70.18;95952.56;5133499;27;20207;-47
2023/01/02 00:26:00;;;;;;;30.33;18.90;;;;;;;8.64;70.26;95986.34;5132996;27;20237;-49
2023/01/02 00:28:27;;;;;;;28.53;18.77;;;;;;;8.61;70.06;95982.25;5133379;27;20220;-46
2023/01/02 00:30:55;;;;;;;27.37;18.07;;;;;;;8.58;70.24;95976.50;5133345;27;20200;-48
2023/01/02 00:33:22;;;;;;;27.20;18.37;;;;;;;8.60;70.26;95983.16;5133102;27;20240;-47
2023/01/02 00:35:49;;;;;;;26.87;18.73;;;;;;;8.58;70.27;95987.53;5132877;27;20311;-48
2023/01/02 00:38:18;;;;;;;33.53;19.03;;;;;;;8.56;69.96;95986.81;5132790;27;20245;-48
2023/01/02 00:40:44;;;;;;;30.67;19.40;;;;;;;8.54;70.23;95981.78;5132635;27;20743;-48
2023/01/02 00:43:11;;;;;;;28.53;18.37;;;;;;;8.53;70.22;95982.69;5133485;27;20269;-47
2023/01/02 00:45:38;;;;;;;32.57;20.07;;;;;;;8.52;70.32;95983.63;5132677;27;20189;-47
2023/01/02 00:48:06;;;;;;;32.27;19.47;;;;;;;8.48;70.36;95977.06;5132868;27;20204;-48
2023/01/02 00:50:33;;;;;;;27.57;18.83;;;;;;;8.48;70.11;95978.81;5132784;27;20196;-47
2023/01/02 00:53:00;;;;;;;32.30;20.00;;;;;;;8.45;70.22;95981.53;5132629;27;20188;-48
2023/01/02 00:55:26;;;;;;;32.63;19.97;;;;;;;8.49;70.11;95988.91;5132800;27;20189;-47
2023/01/02 00:57:53;;;;;;;31.30;18.77;;;;;;;8.48;70.28;95991.56;5132498;27;20193;-47
2023/01/02 01:00:20;;;;;;;26.80;18.57;;;;;;;8.32;70.15;95961.03;5132658;27;20196;-48
2023/01/02 01:02:47;;;;;;;27.30;18.47;;;;;;;8.44;70.26;95988.38;5131974;27;20188;-46
2023/01/02 01:05:15;;;;;;;31.00;18.87;;;;;;;8.43;70.37;95991.81;5132542;27;20188;-48
2023/01/02 01:07:42;;;;;;;29.83;18.37;;;;;;;8.42;70.43;95985.09;5132376;27;20645;-47
2023/01/02 01:10:08;;;;;;;32.07;20.27;;;;;;;8.29;70.09;95969.69;5132636;27;20627;-48
2023/01/02 01:12:35;;;;;;;32.63;19.20;;;;;;;8.37;70.19;95983.72;5132409;27;20199;-46
2023/01/02 01:15:02;;;;;;;33.07;20.30;;;;;;;8.36;70.32;95982.88;5132622;27;20241;-49
2023/01/02 01:17:29;;;;;;;29.73;18.90;;;;;;;8.38;70.31;95975.19;5132501;27;20184;-47
2023/01/02 01:19:55;;;;;;;26.63;18.07;;;;;;;8.36;70.33;95975.22;5133044;27;20663;-49
2023/01/02 01:22:24;;;;;;;26.47;18.23;;;;;;;8.33;70.29;95972.03;5132494;27;20184;-48
2023/01/02 01:24:50;;;;;;;29.60;17.80;;;;;;;8.35;70.37;95982.97;5132273;27;20192;-47
2023/01/02 01:27:17;;;;;;;29.47;18.10;;;;;;;8.33;70.34;95977.13;5131970;27;20180;-48
2023/01/02 01:29:44;;;;;;;26.60;18.77;;;;;;;8.32;70.23;95981.41;5132212;27;20197;-47
2023/01/02 01:32:11;;;;;;;25.30;17.20;;;;;;;8.32;70.34;95983.97;5131202;27;20640;-46
2023/01/02 01:34:37;;;;;;;26.20;17.53;;;;;;;8.30;70.25;95980.72;5131908;27;20185;-46
2023/01/02 01:37:04;;;;;;;24.67;17.13;;;;;;;8.29;70.19;95971.44;5132338;27;20185;-46
2023/01/02 01:39:33;;;;;;;29.87;18.03;;;;;;;8.28;70.31;95973.13;5131720;27;20319;-48
2023/01/02 01:42:00;;;;;;;23.83;17.13;;;;;;;8.24;70.17;95969.13;5131979;27;20310;-47
2023/01/02 01:44:45;;;;;;;24.43;16.23;;;;;;;8.23;70.48;95967.50;5132880;27;20313;-47
2023/01/02 01:47:18;;;;;;;30.90;17.67;;;;;;;8.19;70.27;95967.78;5134301;27;20241;-46
2023/01/02 01:49:46;;;;;;;26.87;18.13;;;;;;;8.24;70.20;95960.66;5131590;27;20188;-50
2023/01/02 01:52:18;;;;;;;32.17;19.40;;;;;;;8.22;70.55;95965.88;5131446;27;20623;-47
2023/01/02 01:54:52;;;;;;;27.37;18.23;;;;;;;8.17;70.40;95957.69;5131617;27;20184;-46
2023/01/02 01:57:23;;;;;;;24.57;17.37;;;;;;;8.20;70.26;95964.31;5131469;27;20729;-47
2023/01/02 01:59:50;;;;;;;24.80;17.67;;;;;;;8.18;70.64;95958.50;5131535;27;20192;-47
2023/01/02 02:02:18;;;;;;;30.10;17.97;;;;;;;8.15;70.37;95954.38;5131568;27;20689;-46
2023/01/02 02:04:46;;;;;;;27.57;17.73;;;;;;;8.16;70.24;95960.31;5131218;27;20188;-47
2023/01/02 02:07:13;;;;;;;27.30;18.30;;;;;;;8.16;70.37;95950.09;5130994;27;20192;-48
2023/01/02 02:09:45;;;;;;;28.77;18.37;;;;;;;8.15;70.31;95951.84;5130597;27;20709;-46
2023/01/02 02:12:16;;;;;;;26.43;17.87;;;;;;;8.07;70.59;95937.94;5131263;27;20200;-47
2023/01/02 02:14:43;;;;;;;31.40;18.27;;;;;;;8.12;70.59;95954.59;5131250;27;20281;-47
2023/01/02 02:17:18;;;;;;;25.37;17.30;;;;;;;8.14;70.39;95957.03;5131262;27;20665;-47
2023/01/02 02:20:20;;;;;;;24.97;16.93;;;;;;;8.13;70.44;95956.22;5130938;27;20203;-50
2023/01/02 02:23:22;;;;;;;32.70;18.63;;;;;;;8.08;70.58;95955.69;5131196;27;20188;-47
2023/01/02 02:26:16;;;;;;;27.40;17.87;;;;;;;8.11;70.49;95959.75;5131138;27;20184;-46
2023/01/02 02:29:08;;;;;;;25.83;16.53;;;;;;;8.10;70.52;95965.78;5027515;28;20227;-46
2023/01/02 02:31:43;;;;;;;24.83;17.10;;;;;;;8.09;70.68;95959.88;5027597;28;20184;-47
2023/01/02 02:34:20;;;;;;;30.97;18.07;;;;;;;8.08;70.66;95963.34;5027748;28;20637;-47
2023/01/02 02:36:55;;;;;;;24.10;16.47;;;;;;;8.07;70.54;95955.75;5027750;28;20203;-47
2023/01/02 02:39:30;;;;;;;25.60;17.60;;;;;;;8.05;70.37;95956.69;5027506;28;20230;-49
2023/01/02 02:42:06;;;;;;;25.77;16.30;;;;;;;8.04;70.46;95956.78;5028620;28;20191;-47
2023/01/02 02:44:46;;;;;;;25.63;17.03;;;;;;;8.03;70.34;95943.22;5027353;28;20195;-47
2023/01/02 02:47:22;;;;;;;25.23;16.60;;;;;;;8.01;70.42;95952.66;5027579;28;20290;-45
2023/01/02 02:49:56;;;;;;;26.43;16.63;;;;;;;7.97;70.53;95950.41;5027244;28;20310;-46
2023/01/02 02:52:29;;;;;;;24.47;16.47;;;;;;;8.00;70.32;95947.69;5027209;28;20308;-47
2023/01/02 02:55:01;;;;;;;27.20;16.40;;;;;;;7.99;70.19;95943.50;5026992;28;20191;-48
2023/01/02 02:57:30;;;;;;;24.07;16.23;;;;;;;7.43;70.32;95845.81;5027111;28;20214;-46
2023/01/02 02:59:58;;;;;;;27.27;17.40;;;;;;;7.97;70.47;95927.47;5026848;28;20202;-49
2023/01/02 03:02:26;;;;;;;23.90;16.60;;;;;;;7.97;70.50;95933.38;5026989;28;20203;-47
2023/01/02 03:04:58;;;;;;;24.57;16.50;;;;;;;7.96;70.31;95926.66;5035757;28;20764;-46
2023/01/02 03:07:32;;;;;;;25.27;16.73;;;;;;;7.96;70.48;95928.38;5089664;28;20189;-48
2023/01/02 03:10:14;;;;;;;24.60;16.00;;;;;;;7.94;70.50;95925.91;5088986;28;20299;-45
2023/01/02 03:12:50;;;;;;;24.53;16.03;;;;;;;7.95;70.36;95921.66;5089980;28;20276;-47
2023/01/02 03:15:23;;;;;;;22.90;16.33;;;;;;;7.93;70.44;95923.47;5089426;28;20904;-48
2023/01/02 03:18:08;;;;;;;25.73;16.90;;;;;;;7.92;70.63;95921.84;5089136;28;20250;-47
2023/01/02 03:20:41;;;;;;;26.00;16.63;;;;;;;7.91;70.46;95917.66;5089893;28;20246;-48
2023/01/02 03:23:13;;;;;;;27.97;17.37;;;;;;;7.90;70.59;95926.19;5089674;28;20570;-48
2023/01/02 03:25:43;;;;;;;25.60;16.63;;;;;;;7.89;70.44;95920.28;5090122;28;20216;-46
2023/01/02 03:28:12;;;;;;;23.87;17.07;;;;;;;7.88;70.34;95923.75;5089454;28;20217;-46
2023/01/02 03:30:42;;;;;;;25.10;15.77;;;;;;;7.88;70.44;95930.56;5089623;28;20197;-48
2023/01/02 03:33:16;;;;;;;21.93;15.70;;;;;;;7.87;70.41;95936.59;5089566;28;20341;-48
2023/01/02 03:35:46;;;;;;;25.67;16.10;;;;;;;7.86;70.43;95935.75;5089941;28;20259;-50
2023/01/02 03:38:20;;;;;;;24.33;16.23;;;;;;;7.86;70.38;95935.75;5089365;28;20186;-47
2023/01/02 03:40:54;;;;;;;25.13;16.07;;;;;;;7.85;70.41;95944.28;5124489;28;20220;-47
2023/01/02 03:43:24;;;;;;;23.07;16.23;;;;;;;7.84;70.39;95944.38;5129607;28;20662;-48
2023/01/02 03:45:57;;;;;;;23.43;15.97;;;;;;;7.84;70.30;95946.94;5129887;28;20648;-48
2023/01/02 03:48:31;;;;;;;26.47;16.53;;;;;;;7.83;70.22;95952.94;5130083;28;20573;-49
2023/01/02 03:51:00;;;;;;;27.13;16.47;;;;;;;7.81;70.45;95953.00;5130156;28;20180;-47
2023/01/02 03:53:28;;;;;;;25.90;16.80;;;;;;;7.81;70.42;95953.00;5130165;28;20183;-47
2023/01/02 03:56:12;;;;;;;25.60;16.87;;;;;;;7.81;70.36;95955.56;5132697;27;20199;-47
2023/01/02 03:58:45;;;;;;;25.87;15.93;;;;;;;7.79;70.30;95959.94;5134152;27;20279;-46
2023/01/02 04:01:17;;;;;;;25.10;16.33;;;;;;;7.79;70.55;95957.41;5133823;27;20652;-47
2023/01/02 04:03:50;;;;;;;24.20;15.77;;;;;;;7.78;70.40;95959.13;5134240;27;20176;-48
2023/01/02 04:06:23;;;;;;;20.53;15.33;;;;;;;7.77;70.40;95965.13;5133938;27;20188;-47
2023/01/02 04:08:56;;;;;;;27.40;16.33;;;;;;;7.77;70.39;95954.09;5133947;27;20212;-47
2023/01/02 04:11:26;;;;;;;21.53;15.10;;;;;;;7.74;70.61;95957.66;5134016;27;20185;-47
2023/01/02 04:13:58;;;;;;;24.07;15.87;;;;;;;7.74;70.42;95962.75;5133953;27;20697;-49
2023/01/02 04:16:29;;;;;;;22.10;15.73;;;;;;;7.75;70.49;95968.66;5133852;27;20295;-46
2023/01/02 04:19:01;;;;;;;21.47;14.73;;;;;;;7.74;70.37;95962.75;5133451;27;20203;-46
2023/01/02 04:21:32;;;;;;;22.87;14.87;;;;;;;7.75;70.55;95968.66;5133375;27;20191;-46
2023/01/02 04:24:03;;;;;;;21.33;15.33;;;;;;;7.61;70.53;95949.09;5133636;27;20249;-46
2023/01/02 04:26:35;;;;;;;22.23;14.23;;;;;;;7.73;70.53;95978.94;5133183;27;20176;-46
2023/01/02 04:29:02;;;;;;;26.33;15.57;;;;;;;7.73;70.51;95973.03;5133169;27;20684;-47
2023/01/02 04:31:36;;;;;;;25.47;14.63;;;;;;;7.72;70.69;95974.75;5132832;27;20188;-46
2023/01/02 04:34:06;;;;;;;24.47;16.23;;;;;;;7.71;70.46;95973.09;5133120;27;20672;-47
2023/01/02 04:36:38;;;;;;;20.50;14.50;;;;;;;7.71;70.35;95985.03;5133352;27;20548;-46
2023/01/02 04:39:04;;;;;;;26.63;15.10;;;;;;;7.54;70.47;95955.44;5133551;27;20223;-48
2023/01/02 04:41:33;;;;;;;23.13;16.00;;;;;;;7.69;70.53;95981.75;5132994;27;20668;-47
2023/01/02 04:44:01;;;;;;;24.77;16.43;;;;;;;7.68;70.51;95986.00;5133148;27;20620;-47
2023/01/02 04:46:29;;;;;;;22.67;15.33;;;;;;;7.67;70.48;95981.84;5133158;27;20249;-47
2023/01/02 04:48:56;;;;;;;22.17;15.47;;;;;;;7.66;70.54;95987.03;5132867;27;20208;-46
2023/01/02 04:51:25;;;;;;;22.87;15.53;;;;;;;7.62;70.46;95975.38;5133078;27;20196;-46
2023/01/02 04:53:52;;;;;;;28.50;16.60;;;;;;;7.59;70.53;95966.19;5133118;27;20199;-48
2023/01/02 04:56:20;;;;;;;26.67;16.30;;;;;;;7.66;70.55;95985.28;5133064;27;20545;-46
2023/01/02 04:58:47;;;;;;;25.73;16.63;;;;;;;7.66;70.51;95976.84;5132654;27;20188;-47
2023/01/02 05:01:17;;;;;;;26.23;16.60;;;;;;;7.64;70.72;95976.94;5132761;27;20241;-46
2023/01/02 05:03:46;;;;;;;23.60;16.37;;;;;;;7.63;70.39;95984.66;5132894;27;20561;-46
2023/01/02 05:06:14;;;;;;;26.97;17.17;;;;;;;7.63;70.65;95974.47;5132016;27;20241;-48
2023/01/02 05:08:42;;;;;;;25.30;16.80;;;;;;;7.63;70.60;95980.38;5132262;27;20216;-48
2023/01/02 05:11:11;;;;;;;26.20;16.13;;;;;;;7.59;70.62;95973.81;5132825;27;20265;-47
2023/01/02 05:13:38;;;;;;;21.73;15.07;;;;;;;7.63;70.58;95984.66;5132555;27;20196;-48
2023/01/02 05:16:06;;;;;;;26.00;16.27;;;;;;;7.62;70.64;95983.81;5132195;27;20188;-48
2023/01/02 05:18:33;;;;;;;22.20;16.43;;;;;;;7.60;70.47;95977.19;5135425;27;20245;-48
2023/01/02 05:21:01;;;;;;;24.40;15.97;;;;;;;7.59;70.62;95971.25;5133935;27;20192;-46
2023/01/02 05:26:14;;;;;;;25.03;16.13;;;;;;;7.58;70.59;95973.91;5132281;27;20207;-46
2023/01/02 05:28:40;;;;;;;22.00;15.70;;;;;;;7.57;70.68;95969.72;5132338;27;20188;-47
2023/01/02 05:31:08;;;;;;;26.43;15.73;;;;;;;7.56;70.51;95973.19;5132357;27;20188;-48
2023/01/02 05:33:34;;;;;;;24.70;16.47;;;;;;;7.56;70.59;95970.66;5132399;27;20269;-46
2023/01/02 05:36:01;;;;;;;23.63;16.27;;;;;;;7.51;70.62;95960.69;5132393;27;20680;-47
2023/01/02 05:38:30;;;;;;;23.77;15.97;;;;;;;7.55;70.52;95969.81;5132259;27;20180;-47
2023/01/02 05:41:02;;;;;;;26.43;16.80;;;;;;;7.37;70.51;95935.22;5131959;27;20228;-48
2023/01/02 05:43:32;;;;;;;23.93;16.37;;;;;;;7.55;70.61;95967.25;5131621;27;20716;-46
2023/01/02 05:45:59;;;;;;;23.57;14.80;;;;;;;7.55;70.46;95967.25;5131554;27;20610;-46
2023/01/02 05:48:25;;;;;;;25.10;15.97;;;;;;;7.39;70.54;95941.06;5131630;27;20198;-47
2023/01/02 05:50:53;;;;;;;20.03;15.27;;;;;;;7.56;70.58;95974.00;5131819;27;20242;-48
2023/01/02 05:53:19;;;;;;;22.23;15.80;;;;;;;7.55;70.40;95979.97;5132039;27;20188;-47
2023/01/02 05:55:46;;;;;;;24.77;15.77;;;;;;;7.42;70.52;95963.78;5131805;27;20185;-48
2023/01/02 05:58:13;;;;;;;23.23;16.63;;;;;;;7.56;70.61;95978.28;5131436;27;20284;-48
2023/01/02 06:00:41;;;;;;;25.50;15.43;;;;;;;7.54;70.44;95975.81;5131514;27;20196;-49
2023/01/02 06:03:08;;;;;;;22.90;15.80;;;;;;;7.55;70.38;95982.53;5131477;27;20192;-47
2023/01/02 06:05:35;;;;;;;25.93;16.27;;;;;;;7.49;70.44;95982.88;5131051;27;20237;-47
2023/01/02 06:08:01;;;;;;;26.17;17.07;;;;;;;7.57;70.45;95990.91;5131246;27;20650;-47
2023/01/02 06:10:28;;;;;;;26.97;16.27;;;;;;;7.57;70.30;95987.56;5130963;27;20684;-48
2023/01/02 06:12:55;;;;;;;24.77;16.67;;;;;;;7.60;70.33;95995.00;5131385;27;20188;-46
2023/01/02 06:15:22;;;;;;;27.03;17.67;;;;;;;7.61;70.29;95999.19;5131069;27;20192;-47
2023/01/02 06:17:50;;;;;;;23.27;17.00;;;;;;;7.63;70.35;95998.19;5130491;27;20200;-50
2023/01/02 06:20:17;;;;;;;26.77;18.63;;;;;;;7.65;70.31;96003.22;5131217;27;20562;-47
2023/01/02 06:22:43;;;;;;;25.33;17.83;;;;;;;7.67;70.21;96009.03;5131126;27;20196;-48
2023/01/02 06:25:10;;;;;;;28.13;18.87;;;;;;;7.71;69.95;96013.03;5130735;27;20197;-49
2023/01/02 06:27:37;;;;;;;26.83;17.57;;;;;;;7.72;70.10;96007.03;5131298;27;20253;-48
2023/01/02 06:30:04;;;;;;;28.77;18.67;;;;;;;7.84;69.91;96010.59;5131133;27;20204;-47
2023/01/02 06:32:31;;;;;;;23.73;16.93;;;;;;;7.92;69.60;95995.69;5130608;27;20188;-47
2023/01/02 06:34:59;;;;;;;25.47;17.20;;;;;;;8.26;69.07;96012.38;5130699;27;20192;-46
2023/01/02 06:37:26;;;;;;;29.17;20.07;;;;;;;8.42;68.56;95999.56;5130935;27;20180;-47
2023/01/02 06:39:53;;;;;;;29.97;19.30;;;;;;;8.79;68.20;96005.78;5130839;27;20232;-47
2023/01/02 06:42:20;;;;;;;27.60;18.73;;;;;;;9.08;68.02;96011.66;5130463;27;20645;-47
2023/01/02 06:44:46;;;;;;;33.73;20.00;;;;;;;9.40;67.93;96017.25;5130964;27;20189;-47
2023/01/02 06:47:13;;;;;;;27.20;19.43;;;;;;;9.75;67.87;96012.44;5130461;27;20660;-48
2023/01/02 06:49:40;;;;;;;29.93;20.80;;;;;;;10.10;67.30;96001.63;5130357;27;20219;-48
2023/01/02 06:52:08;;;;;;;38.20;21.50;;;;;;;10.46;67.55;96010.34;5130688;27;20224;-47
2023/01/02 06:54:35;;;;;;;33.27;22.70;;;;;;;10.82;67.47;96013.84;5131059;27;20196;-46
2023/01/02 06:57:02;;;;;;;34.20;21.53;;;;;;;11.11;66.73;96001.56;5130198;27;20577;-48
2023/01/02 06:59:28;;;;;;;35.83;24.37;;;;;;;11.54;66.54;96019.81;5130932;27;20548;-48
2023/01/02 07:01:55;;;;;;;38.53;24.47;;;;;;;11.85;66.25;96008.16;5130904;27;20211;-47
2023/01/02 07:04:22;;;;;;;34.93;24.17;;;;;;;12.23;65.79;96010.44;5130670;27;20184;-45
2023/01/02 07:06:49;;;;;;;37.87;24.83;;;;;;;12.61;65.25;96014.44;5130374;27;20271;-47
2023/01/02 07:09:17;;;;;;;37.70;25.33;;;;;;;12.93;64.80;96005.97;5129789;27;20683;-46
2023/01/02 07:11:44;;;;;;;41.47;26.70;;;;;;;13.36;64.20;96015.47;5130211;27;20633;-49
2023/01/02 07:14:11;;;;;;;38.03;25.87;;;;;;;13.71;63.65;96012.66;5130012;27;20184;-48
2023/01/02 07:16:37;;;;;;;43.97;26.47;;;;;;;14.09;63.05;96019.81;5130225;27;20705;-48
2023/01/02 07:19:04;;;;;;;37.17;26.37;;;;;;;14.45;62.58;96018.50;5130195;27;20590;-50
2023/01/02 07:21:31;;;;;;;40.47;27.43;;;;;;;14.78;61.89;96019.19;5130441;27;20185;-50
2023/01/02 07:23:58;;;;;;;42.47;29.90;;;;;;;15.11;61.21;96019.81;5130212;27;20807;-50
2023/01/02 07:26:26;;;;;;;46.23;29.00;;;;;;;15.38;60.44;96014.03;5130406;28;20187;-47
2023/01/02 07:28:53;;;;;;;43.10;29.37;;;;;;;15.70;59.93;96018.94;5130172;27;20181;-50
2023/01/02 07:31:21;;;;;;;44.40;29.83;;;;;;;15.92;59.45;96008.34;5133584;27;20223;-48
2023/01/02 07:33:48;;;;;;;41.60;30.80;;;;;;;16.26;58.73;96023.34;5134205;27;20656;-48
2023/01/02 07:36:17;;;;;;;40.53;30.47;;;;;;;16.35;58.33;95993.28;5134139;27;20184;-48
2023/01/02 07:38:44;;;;;;;44.27;31.50;;;;;;;16.75;57.69;96032.63;5134420;27;20189;-47
2023/01/02 07:41:14;;;;;;;42.27;29.83;;;;;;;16.98;57.16;96021.88;5134146;27;20567;-47
2023/01/02 07:43:43;;;;;;;40.20;29.63;;;;;;;17.17;56.63;96015.78;5134419;27;20672;-47
2023/01/02 07:46:11;;;;;;;37.70;27.93;;;;;;;17.39;56.33;96022.31;5133775;27;20221;-47
2023/01/02 07:48:38;;;;;;;46.47;31.33;;;;;;;17.41;56.21;96015.22;5134455;27;20184;-51
2023/01/02 07:51:06;;;;;;;51.43;32.83;;;;;;;17.41;56.40;96023.78;5133800;27;20265;-48
2023/01/02 07:53:33;;;;;;;49.33;32.80;;;;;;;17.30;56.62;96026.59;5134063;27;20199;-48
2023/01/02 07:56:01;;;;;;;50.23;34.07;;;;;;;17.15;56.67;96031.44;5133525;27;20192;-49
2023/01/02 07:58:28;;;;;;;49.03;33.70;;;;;;;17.03;56.60;96025.66;5133948;27;20579;-48
2023/01/02 08:00:57;;;;;;;52.57;35.30;;;;;;;17.00;56.30;96035.47;5133517;27;20575;-49
2023/01/02 08:03:24;;;;;;;49.73;34.20;;;;;;;16.83;56.11;96031.06;5134264;27;20181;-48
2023/01/02 08:05:51;;;;;;;49.00;35.27;;;;;;;16.64;56.07;96012.09;5133592;27;20675;-47
2023/01/02 08:08:17;;;;;;;55.17;37.07;;;;;;;16.94;55.21;96031.69;5133862;27;20245;-47
2023/01/02 08:10:44;;;;;;;52.70;35.23;;;;;;;17.37;53.86;96027.63;5133990;27;20231;-47
2023/01/02 08:13:11;;;;;;;51.80;36.27;;;;;;;17.41;53.11;96031.56;5134069;27;20188;-46
2023/01/02 08:15:38;;;;;;;52.17;37.23;;;;;;;17.11;53.54;96021.53;5133660;27;20200;-49
2023/01/02 08:18:06;;;;;;;53.70;37.77;;;;;;;16.78;53.90;96016.81;5133808;27;20195;-47
2023/01/02 08:20:33;;;;;;;57.23;38.67;;;;;;;16.53;54.31;96023.41;5134210;27;20209;-48
2023/01/02 08:23:00;;;;;;;55.13;37.53;;;;;;;16.39;54.79;96017.88;5133824;27;20679;-49
2023/01/02 08:25:26;;;;;;;54.13;37.47;;;;;;;16.23;54.93;96018.47;5133529;27;20551;-47
2023/01/02 08:27:53;;;;;;;55.70;37.73;;;;;;;16.04;55.12;95993.53;5133332;27;20650;-46
2023/01/02 08:30:20;;;;;;;54.73;38.20;;;;;;;16.38;54.17;96013.69;5133706;27;20218;-48
2023/01/02 08:32:47;;;;;;;55.93;36.80;;;;;;;16.60;53.78;96018.50;5132822;27;20192;-46
2023/01/02 08:35:15;;;;;;;55.07;37.47;;;;;;;16.81;53.05;96015.72;5133477;27;20211;-46
2023/01/02 08:37:42;;;;;;;53.97;35.80;;;;;;;17.04;52.52;96018.72;5132741;27;20193;-48
2023/01/02 08:40:10;;;;;;;55.87;38.93;;;;;;;17.27;51.78;96017.38;5132737;27;20228;-47
2023/01/02 08:42:36;;;;;;;55.20;38.13;;;;;;;17.34;51.49;96009.00;5132974;27;20192;-46
2023/01/02 08:45:04;;;;;;;53.43;38.00;;;;;;;17.19;51.41;96019.84;5133609;27;20180;-47
2023/01/02 08:47:30;;;;;;;52.87;39.13;;;;;;;16.91;52.16;96006.13;5133741;27;20653;-47
2023/01/02 08:49:57;;;;;;;58.30;37.60;;;;;;;16.62;52.77;96010.59;5135063;27;20223;-46
2023/01/02 08:52:25;;;;;;;55.53;37.63;;;;;;;16.36;53.24;96008.63;5134307;27;20184;-48
2023/01/02 08:54:52;;;;;;;59.07;39.20;;;;;;;16.15;53.66;96006.28;5133391;27;20244;-47
2023/01/02 08:57:19;;;;;;;49.90;37.03;;;;;;;15.97;53.87;96002.75;5132882;27;20195;-47
2023/01/02 08:59:46;;;;;;;54.87;37.40;;;;;;;15.82;54.30;96004.97;5132613;27;20192;-47
2023/01/02 09:02:14;;;;;;;55.17;36.77;;;;;;;15.65;54.54;95987.59;5132649;27;20188;-47
2023/01/02 09:04:41;;;;;;;48.57;35.77;;;;;;;15.56;54.54;95992.59;5132330;27;20672;-46
2023/01/02 09:07:08;;;;;;;52.67;37.60;;;;;;;15.45;54.96;95989.31;5132112;27;20656;-47
2023/01/02 09:09:36;;;;;;;55.37;37.57;;;;;;;15.33;55.07;95980.94;5132351;27;20509;-49
2023/01/02 09:12:03;;;;;;;57.40;38.07;;;;;;;15.26;55.41;95979.84;5132296;27;20203;-46
2023/01/02 09:14:29;;;;;;;55.60;37.63;;;;;;;15.17;55.46;95980.66;5132550;27;20559;-47
2023/01/02 09:16:57;;;;;;;56.03;36.43;;;;;;;15.10;55.74;95974.38;5132361;27;20192;-47
2023/01/02 09:19:24;;;;;;;54.53;38.07;;;;;;;15.03;55.78;95971.56;5131892;27;20687;-46
2023/01/02 09:21:51;;;;;;;54.10;37.00;;;;;;;14.90;56.02;95958.09;5132154;27;20203;-47
2023/01/02 09:24:18;;;;;;;57.00;36.47;;;;;;;14.95;55.98;95971.41;5131906;27;20257;-48
2023/01/02 09:26:46;;;;;;;56.23;35.83;;;;;;;14.90;56.10;95968.41;5132439;27;20567;-46
2023/01/02 09:29:14;;;;;;;51.50;36.70;;;;;;;14.87;56.12;95968.66;5131922;27;20187;-48
2023/01/02 09:31:41;;;;;;;55.23;36.07;;;;;;;14.83;56.19;95954.41;5131775;27;20235;-47
2023/01/02 09:34:08;;;;;;;54.23;36.10;;;;;;;14.80;56.14;95955.50;5131677;27;20673;-48
2023/01/02 09:36:35;;;;;;;52.73;36.57;;;;;;;14.78;56.47;95945.31;5131784;27;20192;-46
2023/01/02 09:39:02;;;;;;;52.03;35.77;;;;;;;14.76;56.27;95947.22;5131682;27;20195;-49
2023/01/02 09:41:35;;;;;;;51.73;35.77;;;;;;;14.72;56.50;95942.44;5131508;27;20226;-47
2023/01/02 09:44:11;;;;;;;55.27;34.60;;;;;;;14.72;56.63;95933.00;5131758;27;20672;-46
2023/01/02 09:46:45;;;;;;;48.40;35.17;;;;;;;14.68;56.51;95931.63;5131572;27;20660;-47
2023/01/02 09:49:16;;;;;;;50.53;35.33;;;;;;;14.69;56.63;95929.88;5131522;27;20184;-45
2023/01/02 09:51:44;;;;;;;50.77;34.43;;;;;;;14.66;56.31;95933.50;5131152;27;20761;-47
2023/01/02 09:54:16;;;;;;;50.33;35.23;;;;;;;14.59;56.71;95914.38;5131271;27;20257;-48
2023/01/02 09:56:45;;;;;;;57.97;35.53;;;;;;;14.62;56.80;95918.47;5131685;27;20184;-48
2023/01/02 09:59:17;;;;;;;50.43;34.50;;;;;;;14.61;56.70;95919.41;5131179;27;20195;-47
2023/01/02 10:01:54;;;;;;;45.47;32.20;;;;;;;14.59;56.84;95914.38;5130421;27;20248;-47
2023/01/02 10:04:33;;;;;;;47.50;34.53;;;;;;;14.60;56.66;95917.78;5131326;27;20347;-51
2023/01/02 10:07:08;;;;;;;47.43;33.17;;;;;;;14.60;56.89;95908.31;5130909;27;20640;-49
2023/01/02 10:09:44;;;;;;;47.00;33.13;;;;;;;14.58;56.64;95897.31;5130898;27;20181;-47
2023/01/02 10:12:20;;;;;;;49.43;35.37;;;;;;;14.62;56.85;95903.81;5130906;27;20207;-48
2023/01/02 10:14:55;;;;;;;54.10;36.27;;;;;;;14.59;56.91;95887.81;5130890;27;20203;-47
2023/01/02 10:17:23;;;;;;;48.40;32.97;;;;;;;14.54;56.72;95873.59;5130790;27;20193;-47
2023/01/02 10:19:56;;;;;;;53.83;34.90;;;;;;;14.66;56.95;95894.88;5130854;27;20195;-48
2023/01/02 10:22:31;;;;;;;54.93;35.00;;;;;;;14.68;56.76;95885.28;5130956;27;20203;-47
2023/01/02 10:25:05;;;;;;;52.50;35.33;;;;;;;14.71;56.74;95886.75;5130379;27;20183;-47
2023/01/02 10:27:39;;;;;;;50.33;33.63;;;;;;;14.75;56.49;95882.97;5130796;27;20184;-46
2023/01/02 10:30:18;;;;;;;50.03;33.80;;;;;;;14.76;56.61;95882.81;5130637;27;20200;-46
2023/01/02 10:32:52;;;;;;;52.80;33.73;;;;;;;14.76;56.30;95866.56;5130658;27;20283;-46
2023/01/02 10:35:32;;;;;;;54.37;35.80;;;;;;;14.85;56.56;95880.41;5130639;27;20191;-46
2023/01/02 10:37:59;;;;;;;45.47;33.07;;;;;;;14.89;56.49;95872.25;5130745;27;20188;-49
2023/01/02 10:40:26;;;;;;;54.57;35.70;;;;;;;14.94;56.34;95870.13;5130464;27;20228;-46
2023/01/02 10:42:56;;;;;;;50.07;35.17;;;;;;;14.99;56.24;95872.28;5130546;27;20199;-47
2023/01/02 10:45:25;;;;;;;53.53;36.97;;;;;;;15.03;56.30;95863.34;5130611;27;20621;-46
2023/01/02 10:47:52;;;;;;;57.27;35.50;;;;;;;15.06;56.19;95863.84;5130330;27;20193;-48
2023/01/02 10:50:21;;;;;;;54.37;36.40;;;;;;;15.11;56.24;95860.06;5130521;27;20553;-49
2023/01/02 10:52:50;;;;;;;58.20;38.83;;;;;;;15.16;55.97;95855.34;5130500;27;20732;-48
2023/01/02 10:55:30;;;;;;;54.47;36.67;;;;;;;15.20;56.02;95851.53;5129952;27;20294;-48
2023/01/02 10:58:03;;;;;;;56.97;37.73;;;;;;;15.23;56.15;95846.91;5129854;27;20216;-46
2023/01/02 11:00:33;;;;;;;57.23;37.23;;;;;;;15.26;56.02;95838.91;5130844;27;20199;-49
2023/01/02 11:03:07;;;;;;;54.83;36.83;;;;;;;15.29;56.04;95837.81;5130376;27;20215;-46
2023/01/02 11:05:44;;;;;;;60.33;39.27;;;;;;;15.32;55.96;95827.22;5130564;27;20184;-47
2023/01/02 11:08:13;;;;;;;52.80;37.27;;;;;;;15.29;56.00;95823.16;5130651;27;20191;-46
2023/01/02 11:10:42;;;;;;;52.17;36.60;;;;;;;15.27;55.97;95811.34;5130416;27;20212;-47
2023/01/02 11:13:11;;;;;;;53.77;36.47;;;;;;;15.41;55.95;95820.41;5130278;27;20184;-50
2023/01/02 11:15:49;;;;;;;50.47;36.07;;;;;;;15.44;55.50;95820.13;5130187;27;20656;-46
2023/01/02 11:18:22;;;;;;;57.07;36.53;;;;;;;15.46;55.67;95816.47;5130245;27;20236;-47
2023/01/02 11:20:52;;;;;;;55.93;35.87;;;;;;;15.45;55.69;95809.66;5130765;27;20219;-48
2023/01/02 11:23:22;;;;;;;54.87;36.13;;;;;;;15.45;55.68;95799.34;5130953;27;20253;-46
2023/01/02 11:25:50;;;;;;;60.80;37.23;;;;;;;15.53;55.63;95808.97;5130322;28;20251;-48
2023/01/02 11:28:20;;;;;;;54.83;35.10;;;;;;;15.54;55.65;95806.28;5130828;28;20222;-49
2023/01/02 11:30:51;;;;;;;47.90;34.67;;;;;;;15.39;55.47;95769.00;5130346;28;20715;-49
2023/01/02 11:33:25;;;;;;;55.47;36.10;;;;;;;15.59;55.45;95799.84;5129477;28;20241;-49
2023/01/02 11:35:55;;;;;;;57.00;35.87;;;;;;;15.61;55.52;95800.56;5130100;28;20381;-48